Nanoose Bay, British Columbia

Past 24 Hour Conditions

Date / Time
(PST)
Conditions Temp
(°F)
Humidity
(%)
Dew Point
(°F)
Wind
(mph)
Pressure
(inches)
Visibility
(miles)
28 February 2015
16:00 N/A 47 58 33 ESE 7 N/A N/A
15:00 N/A 45 63 34 ESE 9 N/A N/A
14:00 N/A 46 60 33 ESE 9 N/A N/A
13:00 N/A 46 60 33 SE 7 N/A N/A
12:00 N/A 48 51 30 ESE 6 N/A N/A
11:00 N/A 49 35 22 WSW 3 N/A N/A
10:00 N/A 47 41 24 W 8 N/A N/A
9:00 N/A 44 46 24 WNW 7 N/A N/A
8:00 N/A 43 45 23 NW 6 N/A N/A
7:00 N/A 42   41 20 WNW 8 N/A N/A
6:00 N/A 42   43 21 WNW 6 N/A N/A
5:00 N/A 43 40 20 WNW 11 N/A N/A
4:00 N/A 43 42 21 WNW 10 N/A N/A
3:00 N/A 43 46 24 WNW 8 N/A N/A
2:00 N/A 44 44 23 WNW 9 N/A N/A
1:00 N/A 43 47 24 NW 7 N/A N/A
00:00 N/A 44 49 26 WNW 7 N/A N/A
27 February 2015
23:00 N/A 44 58 30 WNW 8 N/A N/A
22:00 N/A 45 54 29 WNW 8 N/A N/A
21:00 N/A 44 63 33 W 6 N/A N/A
20:00 N/A 46 63 33 WNW 7 N/A N/A
19:00 N/A 47 66 36 W 5 N/A N/A
18:00 N/A 48 65 37 W 9 N/A N/A
17:00 N/A 51 54 35 W 14 N/A N/A
16:00 N/A 52   49 34 WNW 14 N/A N/A
N/A Not available
↑ Highest temperature
↓ Lowest temperature

If you require additional historical weather information, please visit Climate Data Online.

What we are doing

Date modified: